Time;durP1;ratioP1;P1;durP2;ratioP2;P2;SDS_P1;SDS_P2;PMS_P1;PMS_P2;Temp;Humidity;BMP_temperature;BMP_pressure;BME280_temperature;BME280_humidity;BME280_pressure;Samples;Min_cycle;Max_cycle;Signal;HPM_P1;HPM_P2
2023/09/12 00:01:18;;;;;;;11.25;5.15;;;17.80;1.00;;;;;;5173339;28;20030;-64
2023/09/12 00:03:52;;;;;;;5.82;4.72;;;17.80;1.00;;;;;;5180153;28;20030;-64
2023/09/12 00:06:23;;;;;;;7.35;5.50;;;17.80;1.00;;;;;;5176150;28;20429;-62
2023/09/12 00:08:56;;;;;;;6.93;5.13;;;17.70;1.00;;;;;;5177244;28;20520;-65
2023/09/12 00:11:27;;;;;;;6.90;4.83;;;17.70;1.00;;;;;;5177112;28;20040;-65
2023/09/12 00:14:01;;;;;;;8.05;4.85;;;17.60;1.00;;;;;;5174642;28;20048;-64
2023/09/12 00:16:33;;;;;;;7.38;4.45;;;17.50;1.00;;;;;;5174103;28;20038;-63
2023/09/12 00:19:04;;;;;;;6.90;4.70;;;17.50;1.00;;;;;;5178807;28;20037;-63
2023/09/12 00:21:38;;;;;;;5.28;4.78;;;17.50;1.00;;;;;;5194305;28;20037;-65
2023/09/12 00:24:09;;;;;;;5.57;4.47;;;17.50;1.00;;;;;;5176983;28;20033;-64
2023/09/12 00:26:43;;;;;;;6.00;5.30;;;17.50;1.00;;;;;;5175280;28;20034;-65
2023/09/12 00:29:15;;;;;;;6.35;5.43;;;17.60;1.00;;;;;;5160508;28;20038;-65
2023/09/12 00:31:47;;;;;;;9.40;4.78;;;17.50;1.00;;;;;;5173063;28;20026;-62
2023/09/12 00:34:18;;;;;;;6.45;4.97;;;17.50;1.00;;;;;;5157978;28;20255;-65
2023/09/12 00:36:49;;;;;;;8.07;5.97;;;17.40;1.00;;;;;;5174295;28;20021;-65
2023/09/12 00:39:20;;;;;;;5.95;4.90;;;17.50;1.00;;;;;;5158208;28;20042;-65
2023/09/12 00:41:55;;;;;;;6.25;5.28;;;17.50;1.00;;;;;;5180650;28;20029;-65
2023/09/12 00:44:30;;;;;;;6.82;5.03;;;17.50;1.00;;;;;;5177765;28;20389;-64
2023/09/12 00:47:03;;;;;;;6.10;5.20;;;17.50;1.00;;;;;;5155065;28;20029;-64
2023/09/12 00:49:37;;;;;;;8.23;5.72;;;17.40;1.00;;;;;;5172137;28;20036;-65
2023/09/12 00:52:12;;;;;;;;;;;17.40;1.00;;;;;;5174597;28;20040;-65
2023/09/12 00:54:43;;;;;;;7.03;6.00;;;17.40;1.00;;;;;;5172684;28;19912;-63
2023/09/12 00:57:14;;;;;;;6.45;4.88;;;17.50;1.00;;;;;;5176261;28;20044;-64
2023/09/12 00:59:49;;;;;;;5.85;4.75;;;17.50;1.00;;;;;;5177347;28;20029;-65
2023/09/12 01:02:22;;;;;;;;;;;17.40;1.00;;;;;;5233081;22;20105;-65
2023/09/12 01:04:55;;;;;;;7.53;5.18;;;17.40;1.00;;;;;;5159541;28;20047;-64
2023/09/12 01:07:28;;;;;;;6.82;5.45;;;17.40;1.00;;;;;;5177600;28;20036;-63
2023/09/12 01:09:59;;;;;;;9.65;5.47;;;17.40;1.00;;;;;;5172245;28;20226;-63
2023/09/12 01:12:31;;;;;;;8.35;4.88;;;17.40;1.00;;;;;;5173542;28;20024;-63
2023/09/12 01:15:08;;;;;;;6.18;4.85;;;17.40;1.00;;;;;;5155589;28;20362;-64
2023/09/12 01:17:46;;;;;;;7.60;5.45;;;17.30;1.00;;;;;;5141485;28;20034;-64
2023/09/12 01:20:25;;;;;;;6.80;5.32;;;17.30;1.00;;;;;;5142005;28;20029;-63
2023/09/12 01:23:19;;;;;;;7.07;5.45;;;17.20;1.00;;;;;;5149058;28;20056;-65
2023/09/12 01:26:09;;;;;;;9.77;6.13;;;17.20;1.00;;;;;;5160444;28;20558;-65
2023/09/12 01:28:42;;;;;;;8.48;5.43;;;17.20;1.00;;;;;;5176315;28;20061;-65
2023/09/12 01:31:16;;;;;;;7.32;5.35;;;17.20;1.00;;;;;;5171083;28;20028;-63
2023/09/12 01:33:48;;;;;;;6.22;5.55;;;17.30;1.00;;;;;;5155877;28;20056;-64
2023/09/12 01:36:21;;;;;;;7.40;5.47;;;17.30;1.00;;;;;;5175645;28;20040;-64
2023/09/12 01:38:55;;;;;;;10.68;5.45;;;17.20;1.00;;;;;;5160414;28;20398;-63
2023/09/12 01:41:28;;;;;;;5.80;5.07;;;17.20;1.00;;;;;;5178471;28;20021;-62
2023/09/12 01:44:05;;;;;;;7.43;5.13;;;17.10;1.00;;;;;;5160251;28;20040;-63
2023/09/12 01:46:38;;;;;;;8.13;5.50;;;17.10;1.00;;;;;;5173828;28;20218;-64
2023/09/12 01:49:14;;;;;;;6.30;4.97;;;17.10;51.30;;;;;;5158378;28;20495;-63
2023/09/12 01:51:45;;;;;;;7.53;5.78;;;17.10;31.80;;;;;;5173000;28;20345;-63
2023/09/12 01:54:17;;;;;;;6.90;5.63;;;17.10;11.00;;;;;;5155040;28;20034;-63
2023/09/12 01:56:51;;;;;;;5.90;5.30;;;17.10;2.90;;;;;;5157152;28;20026;-64
2023/09/12 01:59:22;;;;;;;5.72;5.00;;;17.10;1.00;;;;;;5178197;28;20234;-64
2023/09/12 02:02:00;;;;;;;6.80;5.22;;;17.10;17.70;;;;;;5146161;28;20044;-63
2023/09/12 02:04:34;;;;;;;7.75;5.82;;;17.10;99.90;;;;;;5175155;28;20104;-63
2023/09/12 02:07:10;;;;;;;7.60;6.18;;;17.20;92.40;;;;;;5156080;28;20229;-64
2023/09/12 02:09:44;;;;;;;8.65;5.75;;;17.20;60.90;;;;;;5171733;28;20208;-64
2023/09/12 02:12:15;;;;;;;6.45;5.35;;;17.30;3.10;;;;;;5174453;28;20041;-64
2023/09/12 02:14:47;;;;;;;6.78;5.22;;;17.20;17.40;;;;;;5140286;28;20029;-64
2023/09/12 02:17:18;;;;;;;6.75;5.25;;;17.20;24.00;;;;;;5173080;28;20250;-64
2023/09/12 02:19:54;;;;;;;8.82;5.72;;;17.10;61.60;;;;;;5157506;28;20037;-63
2023/09/12 02:22:27;;;;;;;10.32;5.65;;;17.10;95.10;;;;;;5155911;28;20045;-63
2023/09/12 02:24:59;;;;;;;6.83;5.63;;;17.00;99.90;;;;;;5171818;28;20040;-64
2023/09/12 02:27:30;;;;;;;7.40;5.88;;;16.90;99.90;;;;;;5158823;28;20276;-63
2023/09/12 02:30:02;;;;;;;6.40;4.97;;;16.90;99.90;;;;;;5189625;28;20370;-65
2023/09/12 02:32:33;;;;;;;6.60;5.32;;;16.80;99.90;;;;;;5153388;28;20515;-63
2023/09/12 02:35:06;;;;;;;6.75;5.45;;;16.80;99.90;;;;;;5174746;28;20054;-63
2023/09/12 02:37:37;;;;;;;8.13;6.28;;;16.80;99.90;;;;;;5155846;28;20033;-65
2023/09/12 02:40:11;;;;;;;6.28;5.47;;;16.70;99.90;;;;;;5159861;28;20041;-64
2023/09/12 02:42:45;;;;;;;9.05;6.35;;;16.70;99.90;;;;;;5144297;28;20037;-64
2023/09/12 02:45:17;;;;;;;6.55;5.68;;;16.80;99.90;;;;;;5173455;28;20033;-63
2023/09/12 02:47:48;;;;;;;6.57;5.32;;;16.80;99.90;;;;;;5158132;28;20195;-65
2023/09/12 02:50:22;;;;;;;7.15;5.88;;;16.80;99.90;;;;;;5175833;28;20044;-64
2023/09/12 02:53:11;;;;;;;8.68;6.18;;;16.90;99.90;;;;;;5165377;28;20212;-62
2023/09/12 02:55:43;;;;;;;9.27;6.30;;;16.80;99.90;;;;;;5173200;28;20018;-64
2023/09/12 02:58:14;;;;;;;8.95;5.88;;;16.80;99.90;;;;;;5177640;28;20024;-64
2023/09/12 03:00:45;;;;;;;8.48;5.97;;;16.60;99.90;;;;;;5157400;28;20038;-63
2023/09/12 03:03:16;;;;;;;9.40;6.68;;;16.70;99.90;;;;;;5177852;28;20041;-65
2023/09/12 03:05:47;;;;;;;7.40;6.05;;;16.50;99.90;;;;;;5174934;28;20049;-62
2023/09/12 03:08:21;;;;;;;7.88;5.90;;;16.40;99.90;;;;;;5155477;28;20034;-63
2023/09/12 03:10:56;;;;;;;9.98;6.93;;;16.40;99.90;;;;;;5173739;28;20042;-64
2023/09/12 03:13:31;;;;;;;7.82;5.88;;;16.30;99.90;;;;;;5187409;28;20041;-63
2023/09/12 03:16:02;;;;;;;9.35;6.10;;;16.30;99.90;;;;;;5149234;28;20045;-64
2023/09/12 03:18:33;;;;;;;8.60;5.88;;;16.30;99.90;;;;;;5159481;28;20042;-64
2023/09/12 03:21:05;;;;;;;8.23;6.57;;;16.30;99.90;;;;;;5178217;28;20034;-62
2023/09/12 03:23:36;;;;;;;11.13;7.10;;;16.20;99.90;;;;;;5178391;28;20379;-63
2023/09/12 03:26:07;;;;;;;7.90;6.38;;;16.10;99.90;;;;;;5191850;28;20239;-63
2023/09/12 03:28:38;;;;;;;7.75;6.22;;;16.10;99.90;;;;;;5175195;28;20032;-64
2023/09/12 03:31:12;;;;;;;9.27;6.57;;;16.10;99.90;;;;;;5152749;28;20358;-64
2023/09/12 03:33:49;;;;;;;7.88;6.80;;;16.10;99.90;;;;;;5138843;28;20090;-62
2023/09/12 03:36:21;;;;;;;9.95;6.68;;;16.10;99.90;;;;;;5173290;28;20251;-63
2023/09/12 03:38:52;;;;;;;10.00;7.05;;;16.10;99.90;;;;;;5157382;28;20042;-63
2023/09/12 03:41:26;;;;;;;8.70;6.90;;;16.10;99.90;;;;;;5159888;28;20044;-62
2023/09/12 03:43:57;;;;;;;9.43;6.47;;;16.10;99.90;;;;;;5176635;28;20262;-66
2023/09/12 03:46:31;;;;;;;10.40;6.40;;;16.10;99.90;;;;;;5155292;28;20365;-61
2023/09/12 03:49:03;;;;;;;9.10;6.18;;;16.10;99.90;;;;;;5188712;28;20044;-63
2023/09/12 03:51:37;;;;;;;11.02;6.97;;;16.10;99.90;;;;;;5172595;28;20048;-64
2023/09/12 03:54:09;;;;;;;9.93;6.80;;;16.10;99.90;;;;;;5172089;28;20021;-64
2023/09/12 03:56:42;;;;;;;10.60;7.10;;;16.10;99.90;;;;;;5174419;28;20361;-66
2023/09/12 03:59:13;;;;;;;10.63;6.83;;;16.10;99.90;;;;;;5158437;28;20460;-66
2023/09/12 04:01:47;;;;;;;8.70;7.50;;;16.10;99.90;;;;;;5160100;28;20041;-63
2023/09/12 04:04:18;;;;;;;8.18;6.82;;;16.10;99.90;;;;;;5158985;28;20018;-63
2023/09/12 04:06:50;;;;;;;9.68;7.18;;;16.10;99.90;;;;;;5140860;28;20064;-63
2023/09/12 04:09:21;;;;;;;10.27;7.18;;;16.20;99.90;;;;;;5160265;28;20050;-63
2023/09/12 04:11:52;;;;;;;9.30;6.88;;;16.20;99.90;;;;;;5135913;28;20289;-63
2023/09/12 04:14:26;;;;;;;10.48;7.43;;;16.10;99.90;;;;;;5172432;28;20757;-63
2023/09/12 04:16:57;;;;;;;11.20;7.38;;;16.00;99.90;;;;;;5151950;28;20036;-62
2023/09/12 04:19:31;;;;;;;11.15;7.35;;;16.00;99.90;;;;;;5177605;28;20041;-63
2023/09/12 04:22:05;;;;;;;12.13;7.53;;;16.00;99.90;;;;;;5163451;28;20042;-63
2023/09/12 04:24:38;;;;;;;10.05;6.82;;;15.90;99.90;;;;;;5162270;28;20029;-64
2023/09/12 04:27:13;;;;;;;6.70;5.47;;;15.90;99.90;;;;;;5177633;28;20018;-63
2023/09/12 04:29:44;;;;;;;7.40;6.60;;;15.90;99.90;;;;;;5157025;28;20058;-62
2023/09/12 04:32:23;;;;;;;9.23;7.07;;;15.90;99.90;;;;;;5140026;28;20034;-62
2023/09/12 04:34:56;;;;;;;12.10;7.10;;;16.00;99.90;;;;;;5158647;28;20722;-64
2023/09/12 04:37:28;;;;;;;10.20;6.97;;;16.00;99.90;;;;;;5169429;28;20030;-63
2023/09/12 04:40:05;;;;;;;10.05;7.55;;;16.10;99.90;;;;;;5178432;28;20246;-64
2023/09/12 04:42:36;;;;;;;10.43;7.10;;;16.20;99.90;;;;;;5146415;28;20040;-63
2023/09/12 04:45:10;;;;;;;9.45;7.47;;;16.30;99.90;;;;;;5159688;28;20233;-65
2023/09/12 04:47:41;;;;;;;;;;;16.40;99.90;;;;;;5178105;28;20026;-64
2023/09/12 04:50:12;;;;;;;12.02;7.22;;;16.50;99.90;;;;;;5176182;28;19913;-63
2023/09/12 04:52:44;;;;;;;9.68;7.30;;;16.60;99.90;;;;;;5172524;28;20040;-63
2023/09/12 04:55:18;;;;;;;10.23;6.90;;;16.60;99.90;;;;;;5171658;28;20454;-63
2023/09/12 04:57:51;;;;;;;11.40;6.95;;;16.70;99.90;;;;;;5136503;28;20506;-65
2023/09/12 05:00:22;;;;;;;10.48;7.82;;;16.80;99.90;;;;;;5158568;28;20037;-66
2023/09/12 05:02:54;;;;;;;9.32;7.22;;;16.90;99.90;;;;;;5166079;28;20392;-63
2023/09/12 05:05:27;;;;;;;8.20;6.47;;;17.00;99.90;;;;;;5173213;28;20030;-64
2023/09/12 05:07:59;;;;;;;10.13;6.87;;;17.10;99.90;;;;;;5168298;28;20052;-65
2023/09/12 05:10:31;;;;;;;7.82;6.63;;;17.20;99.90;;;;;;5149370;28;20359;-64
2023/09/12 05:13:02;;;;;;;7.60;6.78;;;17.40;99.90;;;;;;5142187;28;20057;-64
2023/09/12 05:15:36;;;;;;;11.18;6.35;;;17.60;99.90;;;;;;5191488;28;20033;-63
2023/09/12 05:18:08;;;;;;;10.55;6.93;;;17.90;99.90;;;;;;5194154;28;20038;-63
2023/09/12 05:20:42;;;;;;;10.02;7.13;;;17.90;30.80;;;;;;5179339;28;20037;-65
2023/09/12 05:23:13;;;;;;;13.53;8.13;;;17.90;99.90;;;;;;5177370;28;20220;-63
2023/09/12 05:25:46;;;;;;;8.90;6.97;;;18.10;17.80;;;;;;5145144;28;20049;-64
2023/09/12 05:28:18;;;;;;;7.85;6.50;;;18.40;10.90;;;;;;5162022;28;20048;-65
2023/09/12 05:30:55;;;;;;;7.20;5.97;;;18.60;1.00;;;;;;5159763;28;20042;-63
2023/09/12 05:33:26;;;;;;;13.18;6.78;;;18.90;1.00;;;;;;5161234;28;20032;-62
2023/09/12 05:35:58;;;;;;;10.73;7.25;;;19.20;1.00;;;;;;5179193;28;20046;-64
2023/09/12 05:38:29;;;;;;;9.27;6.55;;;19.50;1.00;;;;;;5145869;28;20056;-66
2023/09/12 05:41:03;;;;;;;10.75;6.20;;;19.70;1.00;;;;;;5161212;28;20049;-64
2023/09/12 05:43:34;;;;;;;9.95;6.38;;;20.00;99.90;;;;;;5179497;28;20044;-65
2023/09/12 05:46:07;;;;;;;8.18;6.35;;;20.00;99.90;;;;;;5159410;28;20040;-65
2023/09/12 05:48:40;;;;;;;7.55;5.97;;;20.00;99.90;;;;;;5146527;28;20030;-65
2023/09/12 05:51:14;;;;;;;9.40;5.75;;;20.10;99.90;;;;;;5161529;28;20033;-65
2023/09/12 05:53:46;;;;;;;7.55;5.55;;;20.30;99.90;;;;;;5179796;28;20029;-63
2023/09/12 05:56:17;;;;;;;8.82;6.63;;;20.50;99.90;;;;;;5178279;28;20036;-62
2023/09/12 05:58:52;;;;;;;9.05;6.20;;;20.50;99.90;;;;;;5169523;28;20036;-65
2023/09/12 06:01:26;;;;;;;8.77;6.80;;;20.50;99.90;;;;;;5145704;28;20044;-64
2023/09/12 06:03:57;;;;;;;9.93;7.15;;;20.50;99.90;;;;;;5144712;28;20037;-63
2023/09/12 06:06:28;;;;;;;12.40;7.50;;;20.50;99.90;;;;;;5160834;28;20037;-62
2023/09/12 06:08:59;;;;;;;9.07;6.55;;;20.40;99.90;;;;;;5141233;28;20350;-63
2023/09/12 06:11:33;;;;;;;8.50;6.70;;;20.40;99.90;;;;;;5159780;28;20044;-65
2023/09/12 06:14:08;;;;;;;11.20;7.97;;;20.60;99.90;;;;;;5160889;28;20026;-66
2023/09/12 06:16:40;;;;;;;9.52;7.75;;;20.60;99.90;;;;;;5153329;28;20026;-62
2023/09/12 06:19:19;;;;;;;12.80;7.60;;;20.60;99.90;;;;;;5159250;28;20038;-64
2023/09/12 06:21:55;;;;;;;9.10;7.45;;;20.70;99.90;;;;;;5139837;28;20039;-65
2023/09/12 06:24:30;;;;;;;9.98;7.30;;;20.90;99.90;;;;;;5168904;28;20018;-64
2023/09/12 06:27:02;;;;;;;10.10;8.10;;;21.30;81.20;;;;;;5145668;28;20040;-64
2023/09/12 06:29:33;;;;;;;11.13;7.15;;;21.50;11.00;;;;;;5143329;28;20234;-63
2023/09/12 06:32:04;;;;;;;10.82;6.88;;;21.80;99.90;;;;;;5155058;28;20075;-64
2023/09/12 06:34:38;;;;;;;11.05;6.43;;;22.30;1.00;;;;;;5175282;28;20230;-64
2023/09/12 06:37:10;;;;;;;9.60;6.95;;;22.80;1.00;;;;;;5160375;28;20048;-64
2023/09/12 06:39:41;;;;;;;8.00;7.05;;;23.20;1.00;;;;;;5144957;28;20237;-64
2023/09/12 06:42:13;;;;;;;12.20;7.20;;;23.40;99.90;;;;;;5161624;28;20040;-64
2023/09/12 06:44:44;;;;;;;14.70;6.93;;;23.70;99.90;;;;;;5177860;28;20258;-62
2023/09/12 06:47:15;;;;;;;7.63;5.88;;;24.00;1.00;;;;;;5174678;28;20385;-63
2023/09/12 06:49:49;;;;;;;8.82;7.75;;;24.30;1.00;;;;;;5177905;28;20025;-63
2023/09/12 06:52:20;;;;;;;10.90;7.25;;;24.10;1.00;;;;;;5161025;28;20025;-65
2023/09/12 06:54:54;;;;;;;9.77;7.50;;;23.70;1.00;;;;;;5159595;28;20315;-63
2023/09/12 06:57:29;;;;;;;16.98;7.65;;;23.90;1.00;;;;;;5177290;28;20021;-60
2023/09/12 07:00:00;;;;;;;10.25;6.88;;;23.80;1.00;;;;;;5177419;28;20026;-64
2023/09/12 07:02:34;;;;;;;11.70;6.95;;;23.80;1.00;;;;;;5174884;28;20037;-63
2023/09/12 07:05:06;;;;;;;9.35;7.53;;;24.20;1.00;;;;;;5176001;28;20025;-63
2023/09/12 07:07:37;;;;;;;11.85;8.32;;;24.40;1.00;;;;;;5159630;28;20219;-62
2023/09/12 07:10:08;;;;;;;14.07;8.50;;;24.20;1.00;;;;;;5158769;28;20041;-65
2023/09/12 07:12:39;;;;;;;9.07;7.78;;;24.20;1.00;;;;;;5177543;28;20044;-64
2023/09/12 07:15:10;;;;;;;10.65;7.20;;;24.60;1.00;;;;;;5174298;28;20234;-66
2023/09/12 07:17:42;;;;;;;9.57;6.88;;;24.50;1.00;;;;;;5159359;28;20034;-64
2023/09/12 07:20:13;;;;;;;12.25;7.43;;;25.00;1.00;;;;;;5195416;28;20025;-65
2023/09/12 07:22:44;;;;;;;10.02;7.00;;;25.30;1.00;;;;;;5198264;28;20025;-62
2023/09/12 07:25:18;;;;;;;10.23;7.40;;;25.70;99.90;;;;;;5197080;28;20021;-63
2023/09/12 07:27:52;;;;;;;9.95;6.55;;;26.00;99.90;;;;;;5147439;28;20762;-62
2023/09/12 07:30:23;;;;;;;10.48;6.75;;;25.90;1.00;;;;;;5142766;28;20017;-62
2023/09/12 07:32:55;;;;;;;9.82;7.25;;;26.00;1.00;;;;;;5181430;28;20033;-64
2023/09/12 07:35:30;;;;;;;9.48;7.45;;;26.10;1.00;;;;;;5189483;28;20029;-63
2023/09/12 07:38:03;;;;;;;8.38;6.72;;;26.30;5.10;;;;;;5150376;28;20038;-63
2023/09/12 07:40:35;;;;;;;7.83;6.43;;;26.20;1.00;;;;;;5139877;28;20038;-64
2023/09/12 07:43:07;;;;;;;11.57;7.05;;;26.00;1.00;;;;;;5123970;28;20449;-64
2023/09/12 07:45:38;;;;;;;11.52;6.85;;;25.90;1.00;;;;;;5152149;28;20547;-61
2023/09/12 07:48:11;;;;;;;9.18;7.22;;;25.90;1.00;;;;;;5162930;28;20428;-65
2023/09/12 07:50:42;;;;;;;11.82;7.35;;;25.90;1.00;;;;;;5182071;28;20033;-62
2023/09/12 07:53:16;;;;;;;9.52;7.03;;;26.00;1.00;;;;;;5142808;28;20034;-65
2023/09/12 07:55:47;;;;;;;9.68;7.07;;;26.40;1.00;;;;;;5146647;28;20034;-66
2023/09/12 07:58:21;;;;;;;9.35;7.00;;;26.70;1.00;;;;;;5180824;28;20045;-65
2023/09/12 08:00:52;;;;;;;10.38;7.88;;;27.00;1.00;;;;;;5159976;28;20330;-66
2023/09/12 08:03:23;;;;;;;10.77;7.05;;;27.40;7.00;;;;;;5163761;28;20286;-63
2023/09/12 08:05:56;;;;;;;9.73;6.65;;;27.50;1.00;;;;;;5160720;28;20040;-65
2023/09/12 08:08:30;;;;;;;9.70;7.20;;;27.70;1.00;;;;;;5163276;28;20038;-64
2023/09/12 08:11:02;;;;;;;9.23;7.35;;;28.00;99.90;;;;;;5147534;28;20038;-65
2023/09/12 08:13:33;;;;;;;12.60;6.80;;;28.10;1.00;;;;;;5181640;28;20456;-64
2023/09/12 08:16:04;;;;;;;10.90;7.00;;;28.30;1.00;;;;;;5160123;28;20033;-63
2023/09/12 08:18:35;;;;;;;13.73;6.45;;;27.10;1.00;;;;;;5178986;28;20029;-64
2023/09/12 08:21:07;;;;;;;11.07;7.13;;;26.70;99.90;;;;;;5180506;28;20037;-63
2023/09/12 08:23:38;;;;;;;10.88;6.93;;;27.10;99.90;;;;;;5179399;28;20025;-64
2023/09/12 08:26:10;;;;;;;10.50;6.55;;;27.80;99.90;;;;;;5179309;28;20049;-64
2023/09/12 08:28:41;;;;;;;11.65;6.47;;;28.10;99.90;;;;;;5162784;28;20385;-66
2023/09/12 08:31:15;;;;;;;9.50;6.75;;;28.40;50.40;;;;;;5158929;28;20033;-64
2023/09/12 08:33:49;;;;;;;8.88;6.72;;;28.50;99.90;;;;;;5142638;28;20065;-63
2023/09/12 08:36:20;;;;;;;;;;;28.40;1.00;;;;;;5147252;28;20033;-64
2023/09/12 08:38:51;;;;;;;10.63;6.68;;;28.30;99.90;;;;;;5180398;28;19927;-65
2023/09/12 08:41:23;;;;;;;7.75;6.78;;;27.90;99.90;;;;;;5159535;28;20040;-64
2023/09/12 08:43:55;;;;;;;11.18;7.40;;;28.30;1.00;;;;;;5173285;28;20025;-63
2023/09/12 08:46:27;;;;;;;11.82;7.97;;;28.80;1.00;;;;;;5149317;28;20048;-64
2023/09/12 08:49:01;;;;;;;13.40;7.63;;;29.00;99.90;;;;;;5156944;28;20044;-64
2023/09/12 08:51:33;;;;;;;9.60;6.90;;;29.10;1.00;;;;;;5176570;28;20038;-65
2023/09/12 08:54:05;;;;;;;11.40;6.88;;;29.10;11.70;;;;;;5141997;28;20030;-66
2023/09/12 08:56:41;;;;;;;9.63;7.57;;;29.20;1.00;;;;;;5173222;28;20040;-64
2023/09/12 08:59:12;;;;;;;13.00;6.72;;;29.90;1.00;;;;;;5174166;28;20113;-62
2023/09/12 09:01:45;;;;;;;10.65;7.50;;;30.20;1.00;;;;;;5154615;28;20029;-63
2023/09/12 09:04:19;;;;;;;12.93;7.68;;;30.30;1.00;;;;;;5174209;28;20052;-63
2023/09/12 09:06:51;;;;;;;9.77;6.10;;;30.50;1.00;;;;;;5140202;28;20022;-64
2023/09/12 09:09:22;;;;;;;11.23;7.28;;;30.50;1.00;;;;;;5157489;28;20211;-63
2023/09/12 09:11:53;;;;;;;9.50;7.55;;;30.20;1.00;;;;;;5157330;28;20399;-63
2023/09/12 09:14:27;;;;;;;8.85;7.20;;;30.20;1.00;;;;;;5153231;28;20034;-63
2023/09/12 09:17:01;;;;;;;10.40;6.35;;;29.70;1.00;;;;;;5138902;28;20039;-66
2023/09/12 09:19:43;;;;;;;15.93;7.18;;;29.80;1.00;;;;;;5140919;28;20033;-65
2023/09/12 09:22:17;;;;;;;9.45;6.45;;;30.20;1.00;;;;;;5174410;28;20242;-64
2023/09/12 09:24:48;;;;;;;10.82;7.38;;;30.90;1.00;;;;;;5142428;28;20040;-63
2023/09/12 09:27:34;;;;;;;10.32;7.18;;;31.40;1.00;;;;;;5141785;28;20513;-65
2023/09/12 09:30:06;;;;;;;8.15;6.95;;;31.50;1.00;;;;;;5172010;28;20045;-65
2023/09/12 09:32:38;;;;;;;8.95;6.43;;;31.10;1.00;;;;;;5139471;28;20065;-64
2023/09/12 09:35:09;;;;;;;9.02;7.00;;;30.80;1.00;;;;;;5142589;28;20361;-63
2023/09/12 09:37:42;;;;;;;8.98;6.38;;;30.80;1.00;;;;;;5142678;28;20436;-63
2023/09/12 09:40:13;;;;;;;11.48;6.90;;;31.20;1.00;;;;;;5158115;28;20034;-64
2023/09/12 09:42:46;;;;;;;11.38;6.78;;;31.60;1.00;;;;;;5157677;28;20034;-64
2023/09/12 09:45:20;;;;;;;8.13;6.57;;;32.00;1.00;;;;;;5173329;28;20021;-64
2023/09/12 09:47:58;;;;;;;7.80;6.03;;;32.00;1.00;;;;;;5176293;28;20266;-64
2023/09/12 09:50:29;;;;;;;7.35;6.55;;;32.20;1.00;;;;;;5142520;28;20041;-62
2023/09/12 09:53:01;;;;;;;8.88;6.28;;;32.60;1.00;;;;;;5171428;28;21074;-62
2023/09/12 09:55:32;;;;;;;11.35;6.32;;;32.60;1.00;;;;;;5157896;28;20025;-63
2023/09/12 09:58:07;;;;;;;9.60;6.70;;;32.20;1.00;;;;;;5176073;28;20438;-63
2023/09/12 10:00:38;;;;;;;8.20;6.53;;;32.60;1.00;;;;;;5172679;28;20040;-65
2023/09/12 10:03:10;;;;;;;7.75;6.05;;;32.50;1.00;;;;;;5176555;28;20024;-64
2023/09/12 10:05:46;;;;;;;8.57;6.13;;;33.10;1.00;;;;;;5144376;28;20030;-63
2023/09/12 10:08:18;;;;;;;7.10;6.40;;;33.30;1.00;;;;;;5144750;28;20215;-63
2023/09/12 10:10:51;;;;;;;7.70;6.05;;;33.60;1.00;;;;;;5142232;28;20042;-64
2023/09/12 10:13:26;;;;;;;11.93;6.87;;;34.60;1.00;;;;;;5141164;28;20239;-64
2023/09/12 10:16:00;;;;;;;8.27;6.32;;;34.70;1.00;;;;;;5140313;28;20037;-62
2023/09/12 10:18:42;;;;;;;9.07;6.15;;;35.10;1.00;;;;;;5141247;28;20037;-64
2023/09/12 10:21:23;;;;;;;7.25;5.50;;;35.60;1.00;;;;;;5159490;28;20042;-63
2023/09/12 10:23:57;;;;;;;7.35;5.78;;;35.80;1.00;;;;;;5176133;28;20025;-64
2023/09/12 10:26:31;;;;;;;7.75;6.43;;;36.40;99.90;;;;;;5175511;28;20030;-63
2023/09/12 10:29:03;;;;;;;6.38;5.78;;;36.50;6.90;;;;;;5141591;28;20272;-64
2023/09/12 10:31:35;;;;;;;7.32;6.20;;;36.60;93.10;;;;;;5171778;28;20042;-63
2023/09/12 10:34:09;;;;;;;10.88;5.93;;;36.80;96.90;;;;;;5127088;28;20045;-65
2023/09/12 10:36:45;;;;;;;7.03;5.90;;;37.10;1.00;;;;;;5158497;28;20028;-63
2023/09/12 10:39:20;;;;;;;8.05;6.05;;;37.70;1.00;;;;;;5141282;28;20041;-65
2023/09/12 10:41:52;;;;;;;6.90;5.88;;;38.70;1.00;;;;;;5142072;28;20376;-65
2023/09/12 10:44:24;;;;;;;7.22;5.82;;;39.10;1.00;;;;;;5159277;28;20255;-65
2023/09/12 10:46:57;;;;;;;8.63;5.85;;;40.00;1.00;;;;;;5138508;28;20026;-65
2023/09/12 10:49:31;;;;;;;7.00;5.80;;;39.70;1.00;;;;;;5141650;28;20044;-63
2023/09/12 10:52:03;;;;;;;7.20;5.88;;;39.20;99.90;;;;;;5158202;28;20037;-64
2023/09/12 10:54:39;;;;;;;12.15;6.68;;;38.90;99.90;;;;;;5141630;28;20389;-62
2023/09/12 10:57:13;;;;;;;9.88;6.25;;;38.60;99.90;;;;;;5141453;28;20038;-65
2023/09/12 11:00:10;;;;;;;9.38;6.03;;;39.10;99.90;;;;;;5156419;28;20038;-65
2023/09/12 11:02:44;;;;;;;13.73;5.50;;;39.10;99.90;;;;;;5176026;28;20037;-63
2023/09/12 11:05:28;;;;;;;10.73;5.25;;;39.50;99.90;;;;;;5140774;28;20041;-65
2023/09/12 11:08:01;;;;;;;8.25;5.72;;;40.20;99.90;;;;;;5143208;28;20360;-62
2023/09/12 11:10:35;;;;;;;7.55;5.85;;;40.70;99.90;;;;;;5157883;28;20030;-64
2023/09/12 11:13:18;;;;;;;6.93;5.53;;;40.30;99.90;;;;;;5157915;28;20026;-61
2023/09/12 11:16:20;;;;;;;6.65;5.20;;;40.60;99.90;;;;;;5155929;28;20028;-62
2023/09/12 11:19:28;;;;;;;9.25;7.47;;;40.30;99.90;;;;;;5141318;28;20167;-65
2023/09/12 11:21:59;;;;;;;6.03;5.45;;;39.70;99.90;;;;;;5157421;28;20506;-62
2023/09/12 11:24:44;;;;;;;8.15;5.85;;;39.20;99.90;;;;;;5174808;28;20627;-64
2023/09/12 11:27:15;;;;;;;5.50;4.93;;;39.20;99.90;;;;;;5142100;28;20046;-62
2023/09/12 11:29:47;;;;;;;6.97;5.35;;;38.20;99.90;;;;;;5144075;28;20029;-65
2023/09/12 11:32:27;;;;;;;10.43;5.47;;;37.10;99.90;;;;;;5127733;28;20040;-66
2023/09/12 11:35:04;;;;;;;7.88;5.28;;;36.60;99.90;;;;;;5178031;28;20388;-65
2023/09/12 11:37:39;;;;;;;6.72;5.20;;;38.00;99.90;;;;;;5145034;28;20045;-63
2023/09/12 11:40:16;;;;;;;7.20;5.57;;;39.40;99.90;;;;;;5144722;28;20215;-63
2023/09/12 11:42:49;;;;;;;5.72;5.13;;;40.70;99.90;;;;;;5161584;28;20042;-65
2023/09/12 11:45:23;;;;;;;12.98;5.82;;;41.60;99.90;;;;;;5176092;28;20225;-61
2023/09/12 11:47:56;;;;;;;;;;;41.70;99.90;;;;;;5164083;28;20030;-61
2023/09/12 11:50:31;;;;;;;6.97;5.53;;;40.90;1.00;;;;;;5178767;28;20206;-62
2023/09/12 11:53:10;;;;;;;6.32;5.28;;;41.30;1.00;;;;;;5145892;28;20619;-63
2023/09/12 11:55:51;;;;;;;6.43;5.28;;;40.50;1.00;;;;;;5178511;28;20044;-64
2023/09/12 11:58:28;;;;;;;5.72;5.10;;;40.10;1.00;;;;;;5160890;28;20030;-64
2023/09/12 12:01:03;;;;;;;7.32;5.00;;;40.90;1.00;;;;;;5158069;28;20523;-65
2023/09/12 12:03:37;;;;;;;5.78;4.68;;;42.70;1.00;;;;;;5160296;28;20033;-64
2023/09/12 12:06:10;;;;;;;5.85;5.22;;;43.70;1.00;;;;;;5146102;28;20030;-62
2023/09/12 12:08:42;;;;;;;6.10;5.00;;;44.00;1.00;;;;;;5162990;28;20044;-66
2023/09/12 12:11:14;;;;;;;6.70;5.28;;;42.20;1.00;;;;;;5161532;28;20038;-64
2023/09/12 12:13:48;;;;;;;6.18;5.07;;;40.60;1.00;;;;;;5144057;28;20044;-63
2023/09/12 12:16:19;;;;;;;7.85;4.82;;;38.90;1.00;;;;;;5158029;28;20025;-66
2023/09/12 12:18:55;;;;;;;8.38;4.75;;;38.70;1.00;;;;;;5160642;28;20353;-63
2023/09/12 12:21:27;;;;;;;5.82;5.22;;;39.20;1.00;;;;;;5145508;28;20060;-64
2023/09/12 12:24:00;;;;;;;8.38;5.00;;;40.30;1.00;;;;;;5161076;28;20034;-64
2023/09/12 12:26:34;;;;;;;5.73;4.80;;;41.40;1.00;;;;;;5145169;28;20037;-65
2023/09/12 12:29:08;;;;;;;6.13;5.53;;;41.90;1.00;;;;;;5144049;28;20041;-65
2023/09/12 12:31:42;;;;;;;5.43;4.88;;;42.40;1.00;;;;;;5138754;28;20030;-63
2023/09/12 12:34:21;;;;;;;5.25;4.80;;;42.60;1.00;;;;;;5140918;28;20630;-64
2023/09/12 12:36:55;;;;;;;5.85;4.80;;;41.90;1.00;;;;;;5156965;28;20038;-64
2023/09/12 12:39:26;;;;;;;5.55;4.63;;;41.30;1.00;;;;;;5157206;28;20041;-63
2023/09/12 12:41:57;;;;;;;7.53;5.35;;;40.70;1.00;;;;;;5152804;28;20323;-64
2023/09/12 12:44:36;;;;;;;5.70;5.05;;;41.30;1.00;;;;;;5154771;28;20041;-63
2023/09/12 12:47:09;;;;;;;6.72;5.20;;;41.10;1.00;;;;;;5168413;28;20056;-64
2023/09/12 12:49:41;;;;;;;5.50;5.00;;;42.00;1.00;;;;;;5151582;28;20030;-62
2023/09/12 12:52:12;;;;;;;8.00;5.13;;;43.20;1.00;;;;;;5130999;28;20022;-64
2023/09/12 12:54:44;;;;;;;7.00;5.10;;;43.30;1.00;;;;;;5164841;28;20040;-63
2023/09/12 12:57:19;;;;;;;7.20;4.65;;;43.30;1.00;;;;;;5148676;28;20040;-63
2023/09/12 12:59:50;;;;;;;5.45;4.78;;;42.80;1.00;;;;;;5147650;28;20043;-64
2023/09/12 13:02:22;;;;;;;7.65;4.90;;;42.60;1.00;;;;;;5145646;28;20042;-65
2023/09/12 13:04:53;;;;;;;6.50;4.78;;;43.00;1.00;;;;;;5133995;28;20037;-63
2023/09/12 13:07:24;;;;;;;4.97;4.30;;;42.60;1.00;;;;;;5146084;28;20060;-64
2023/09/12 13:09:58;;;;;;;4.95;4.45;;;43.30;1.00;;;;;;5128996;28;20440;-62
2023/09/12 13:12:29;;;;;;;5.68;4.72;;;43.50;1.00;;;;;;5141425;28;20042;-63
2023/09/12 13:15:01;;;;;;;5.90;4.63;;;43.90;1.00;;;;;;5147176;28;20038;-67
2023/09/12 13:17:32;;;;;;;8.02;4.88;;;42.60;1.00;;;;;;5143114;28;20030;-64
2023/09/12 13:20:08;;;;;;;4.97;4.53;;;41.80;1.00;;;;;;5130427;28;20038;-63
2023/09/12 13:22:39;;;;;;;6.55;4.57;;;42.20;1.00;;;;;;5148927;28;20025;-65